Time;durP1;ratioP1;P1;durP2;ratioP2;P2;SDS_P1;SDS_P2;PMS_P1;PMS_P2;Temp;Humidity;BMP_temperature;BMP_pressure;BME280_temperature;BME280_humidity;BME280_pressure;Samples;Min_cycle;Max_cycle;Signal;HPM_P1;HPM_P2
2022/09/03 00:00:10;;;;;;;0.47;0.20;;;15.50;99.90;;;;;;5016213;28;20414;-84
2022/09/03 00:02:51;;;;;;;0.40;0.20;;;15.50;99.90;;;;;;5015915;28;20424;-84
2022/09/03 00:05:37;;;;;;;0.53;0.20;;;15.50;99.90;;;;;;5015882;28;20497;-84
2022/09/03 00:08:14;;;;;;;1.20;0.37;;;15.40;1.00;;;;;;4998388;28;20778;-85
2022/09/03 00:11:24;;;;;;;0.80;0.30;;;15.40;1.00;;;;;;4998147;28;20428;-84
2022/09/03 00:14:06;;;;;;;1.27;0.60;;;15.40;1.00;;;;;;5015727;28;20395;-84
2022/09/03 00:16:59;;;;;;;0.77;0.30;;;15.30;1.00;;;;;;5015661;28;20423;-85
2022/09/03 00:19:31;;;;;;;1.97;0.30;;;15.30;1.00;;;;;;4998041;28;20414;-85
2022/09/03 00:22:01;;;;;;;0.30;0.20;;;15.20;1.00;;;;;;5015243;28;20577;-87
2022/09/03 00:24:34;;;;;;;0.50;0.20;;;15.20;1.00;;;;;;5001430;28;20412;-84
2022/09/03 00:27:04;;;;;;;0.40;0.20;;;15.10;1.00;;;;;;5017450;28;20766;-85
2022/09/03 00:29:42;;;;;;;0.60;0.30;;;15.10;1.00;;;;;;5007253;28;20420;-90
2022/09/03 00:32:18;;;;;;;0.40;0.20;;;15.20;1.00;;;;;;5004920;28;20578;-85
2022/09/03 00:34:50;;;;;;;0.37;0.20;;;15.20;1.00;;;;;;4995706;28;20415;-86
2022/09/03 00:37:15;;;;;;;0.50;0.30;;;15.10;1.00;;;;;;4999368;28;20434;-83
2022/09/03 00:39:41;;;;;;;0.50;0.30;;;15.00;41.30;;;;;;5015201;28;20422;-89
2022/09/03 00:42:27;;;;;;;0.40;0.20;;;15.00;90.50;;;;;;5015053;28;20633;-88
2022/09/03 00:45:02;;;;;;;0.60;0.20;;;15.00;99.20;;;;;;5015228;28;20949;-89
2022/09/03 00:48:04;;;;;;;0.60;0.20;;;15.10;1.00;;;;;;5014192;28;20411;-87
2022/09/03 00:50:59;;;;;;;0.40;0.20;;;15.00;1.00;;;;;;5014840;28;20423;-89
2022/09/03 00:53:36;;;;;;;0.50;0.20;;;15.10;1.00;;;;;;5013769;28;20437;-84
2022/09/03 00:56:18;;;;;;;0.50;0.20;;;15.00;2.40;;;;;;5014903;28;20415;-87
2022/09/03 00:59:03;;;;;;;0.50;0.30;;;15.00;1.00;;;;;;5014553;28;20484;-86
2022/09/03 01:02:05;;;;;;;0.40;0.20;;;15.10;40.90;;;;;;5014957;28;20467;-90
2022/09/03 01:05:02;;;;;;;0.80;0.40;;;15.10;1.00;;;;;;5015271;28;20400;-89
2022/09/03 01:07:45;;;;;;;0.80;0.20;;;15.10;1.00;;;;;;4997471;28;20550;-90
2022/09/03 01:10:37;;;;;;;0.60;0.20;;;15.20;1.00;;;;;;5015447;28;20429;-84
2022/09/03 01:13:09;;;;;;;0.50;0.20;;;15.10;1.00;;;;;;5015137;28;20922;-86
2022/09/03 01:15:45;;;;;;;0.50;0.20;;;15.20;1.00;;;;;;5014896;28;20426;-90
2022/09/03 01:18:24;;;;;;;1.33;0.20;;;15.20;1.00;;;;;;5015302;28;20470;-84
2022/09/03 01:21:12;;;;;;;0.50;0.20;;;15.20;1.00;;;;;;5014551;28;20473;-88
2022/09/03 01:24:06;;;;;;;0.50;0.20;;;15.20;1.00;;;;;;5015186;28;20424;-91
2022/09/03 01:26:43;;;;;;;0.77;0.33;;;15.20;1.00;;;;;;5014868;28;20498;-91
2022/09/03 01:29:23;;;;;;;0.60;0.20;;;15.20;1.00;;;;;;5014111;28;21011;-90
2022/09/03 01:32:20;;;;;;;0.50;0.20;;;15.30;1.00;;;;;;5015135;28;20424;-91
2022/09/03 01:34:55;;;;;;;0.50;0.20;;;15.30;1.00;;;;;;5014943;28;20405;-85
2022/09/03 01:38:02;;;;;;;0.90;0.30;;;15.30;1.00;;;;;;5012198;28;20417;-91
2022/09/03 01:44:42;;;;;;;1.37;0.20;;;15.20;1.00;;;;;;5015080;28;20828;-84
2022/09/03 01:47:17;;;;;;;0.87;0.30;;;15.30;1.00;;;;;;5014206;28;20759;-90
2022/09/03 01:49:56;;;;;;;0.50;0.20;;;15.40;99.90;;;;;;5014273;28;20461;-91
2022/09/03 01:52:51;;;;;;;2.30;0.20;;;15.30;99.90;;;;;;5013632;28;20423;-91
2022/09/03 01:55:47;;;;;;;0.80;0.43;;;15.30;1.00;;;;;;5014207;28;20896;-93
2022/09/03 01:58:31;;;;;;;1.07;0.20;;;15.20;1.00;;;;;;5014333;28;20411;-91
2022/09/03 02:01:03;;;;;;;0.47;0.20;;;15.20;1.00;;;;;;5012997;28;20510;-90
2022/09/03 02:03:37;;;;;;;0.60;0.20;;;15.10;1.00;;;;;;5014620;28;20433;-92
2022/09/03 02:06:05;;;;;;;0.50;0.20;;;15.10;1.00;;;;;;5013215;28;20428;-92
2022/09/03 02:08:34;;;;;;;3.33;0.63;;;15.00;1.00;;;;;;5013346;28;20430;-92
2022/09/03 02:11:01;;;;;;;0.40;0.20;;;14.90;12.30;;;;;;5014351;28;20461;-83
2022/09/03 02:13:48;;;;;;;0.90;0.30;;;14.80;87.20;;;;;;5013439;28;20990;-91
2022/09/03 02:16:19;;;;;;;0.67;0.20;;;14.70;99.90;;;;;;5014176;28;20444;-82
2022/09/03 02:18:49;;;;;;;0.50;0.20;;;14.70;99.90;;;;;;5013605;28;20493;-82
2022/09/03 02:21:17;;;;;;;0.60;0.20;;;14.70;99.90;;;;;;5013200;28;20891;-86
2022/09/03 02:23:43;;;;;;;0.50;0.30;;;14.70;99.90;;;;;;4995890;28;20420;-83
2022/09/03 02:26:11;;;;;;;0.70;0.20;;;14.60;1.00;;;;;;4994145;28;20434;-90
2022/09/03 02:28:36;;;;;;;1.00;0.40;;;14.50;1.00;;;;;;5032995;28;20411;-84
2022/09/03 02:31:02;;;;;;;0.47;0.20;;;14.50;1.00;;;;;;5033425;28;20413;-90
2022/09/03 02:33:30;;;;;;;1.10;0.30;;;14.50;1.00;;;;;;5033086;28;20166;-90
2022/09/03 02:35:58;;;;;;;2.93;0.43;;;14.50;99.90;;;;;;5033122;28;20475;-88
2022/09/03 02:38:25;;;;;;;0.40;0.20;;;14.40;99.90;;;;;;5016016;28;20910;-85
2022/09/03 02:40:53;;;;;;;2.67;0.83;;;14.40;99.90;;;;;;5033358;28;20458;-92
2022/09/03 02:43:40;;;;;;;0.47;0.20;;;14.40;99.90;;;;;;5033931;28;20430;-90
2022/09/03 02:46:11;;;;;;;0.40;0.20;;;14.40;99.90;;;;;;5032844;28;20871;-83
2022/09/03 02:48:37;;;;;;;0.83;0.30;;;14.40;1.00;;;;;;5033814;28;20469;-90
2022/09/03 02:51:03;;;;;;;1.37;0.20;;;14.30;99.90;;;;;;5037491;28;20410;-90
2022/09/03 02:53:28;;;;;;;1.27;0.20;;;14.30;1.00;;;;;;5020190;28;20180;-86
2022/09/03 02:55:58;;;;;;;0.63;0.20;;;14.20;1.00;;;;;;5037841;28;20194;-90
2022/09/03 02:58:25;;;;;;;1.03;0.20;;;14.20;99.90;;;;;;5037458;28;20192;-83
2022/09/03 03:00:51;;;;;;;0.73;0.30;;;14.10;99.90;;;;;;5037186;28;20977;-87
2022/09/03 03:03:16;;;;;;;1.43;0.20;;;14.10;99.90;;;;;;5037491;28;20411;-87
2022/09/03 03:05:45;;;;;;;0.60;0.20;;;14.10;99.90;;;;;;5036996;28;20170;-92
2022/09/03 03:08:13;;;;;;;0.33;0.20;;;14.10;99.90;;;;;;5037723;28;20428;-91
2022/09/03 03:10:40;;;;;;;0.60;0.30;;;14.00;1.00;;;;;;5037474;28;20420;-92
2022/09/03 03:13:05;;;;;;;2.67;0.57;;;13.90;1.00;;;;;;5019566;28;20421;-91
2022/09/03 03:15:31;;;;;;;0.40;0.20;;;13.90;1.00;;;;;;5019797;28;20422;-92
2022/09/03 03:17:59;;;;;;;1.37;0.20;;;13.90;1.00;;;;;;5037315;28;20338;-89
2022/09/03 03:20:25;;;;;;;0.50;0.20;;;13.90;99.90;;;;;;5037048;28;20195;-91
2022/09/03 03:22:51;;;;;;;0.63;0.30;;;13.90;1.00;;;;;;5037319;28;20437;-92
2022/09/03 03:25:16;;;;;;;0.43;0.20;;;13.90;1.00;;;;;;5001684;28;20217;-84
2022/09/03 03:27:45;;;;;;;0.70;0.40;;;13.80;99.90;;;;;;4999866;28;20275;-84
2022/09/03 03:30:11;;;;;;;0.60;0.20;;;13.90;99.90;;;;;;5016401;28;20182;-91
2022/09/03 03:32:37;;;;;;;0.50;0.20;;;13.80;1.00;;;;;;5017204;28;20926;-84
2022/09/03 03:35:10;;;;;;;0.50;0.20;;;13.80;38.00;;;;;;5015122;28;20988;-84
2022/09/03 03:37:36;;;;;;;1.63;0.10;;;13.70;99.90;;;;;;5015568;28;20424;-85
2022/09/03 03:40:02;;;;;;;0.73;0.20;;;13.70;1.00;;;;;;5016634;28;20525;-86
2022/09/03 03:42:27;;;;;;;0.60;0.20;;;13.70;1.00;;;;;;5016612;28;20569;-87
2022/09/03 03:44:53;;;;;;;0.47;0.20;;;13.80;1.00;;;;;;5015652;28;20430;-83
2022/09/03 03:47:18;;;;;;;0.40;0.20;;;13.70;1.00;;;;;;5016652;28;20568;-84
2022/09/03 03:49:44;;;;;;;0.77;0.20;;;13.70;99.90;;;;;;5014842;28;20224;-87
2022/09/03 03:52:10;;;;;;;0.40;0.20;;;13.70;99.90;;;;;;5016849;28;20627;-91
2022/09/03 03:54:35;;;;;;;0.50;0.20;;;13.60;1.00;;;;;;4999074;28;20180;-82
2022/09/03 03:57:01;;;;;;;0.60;0.20;;;13.60;99.90;;;;;;5016110;28;20258;-83
2022/09/03 03:59:26;;;;;;;0.83;0.30;;;13.60;99.90;;;;;;5016263;28;20555;-82
2022/09/03 04:01:54;;;;;;;1.03;0.30;;;13.60;1.00;;;;;;5015141;28;20291;-84
2022/09/03 04:04:19;;;;;;;0.40;0.20;;;13.60;1.00;;;;;;4998537;28;20179;-83
2022/09/03 04:06:45;;;;;;;2.23;0.60;;;13.50;45.20;;;;;;5015727;28;20496;-86
2022/09/03 04:09:10;;;;;;;0.80;0.27;;;13.50;93.20;;;;;;5015966;28;20250;-84
2022/09/03 04:11:42;;;;;;;0.60;0.23;;;13.40;99.90;;;;;;5014529;28;20190;-84
2022/09/03 04:14:07;;;;;;;1.23;0.30;;;13.50;99.90;;;;;;5015749;28;20177;-84
2022/09/03 04:16:32;;;;;;;0.50;0.23;;;13.50;1.00;;;;;;5014431;28;20423;-85
2022/09/03 04:18:59;;;;;;;0.67;0.20;;;13.40;99.90;;;;;;5015239;28;20184;-85
2022/09/03 04:21:26;;;;;;;1.00;0.20;;;13.40;99.90;;;;;;5015074;28;20292;-85
2022/09/03 04:23:52;;;;;;;0.70;0.20;;;13.40;99.90;;;;;;4997858;28;20422;-86
2022/09/03 04:26:23;;;;;;;0.43;0.20;;;13.30;99.90;;;;;;5015234;28;20453;-85
2022/09/03 04:28:49;;;;;;;0.67;0.20;;;13.30;1.00;;;;;;4997566;28;20505;-83
2022/09/03 04:31:17;;;;;;;0.60;0.23;;;13.40;1.00;;;;;;5015233;28;20858;-84
2022/09/03 04:33:42;;;;;;;0.40;0.30;;;13.30;1.00;;;;;;5015035;28;20170;-84
2022/09/03 04:36:10;;;;;;;0.80;0.20;;;13.30;1.00;;;;;;5014696;28;20423;-84
2022/09/03 04:38:38;;;;;;;0.83;0.20;;;13.30;99.90;;;;;;5014779;28;20687;-85
2022/09/03 04:41:06;;;;;;;1.13;0.30;;;13.40;99.90;;;;;;5014904;28;20475;-84
2022/09/03 04:43:32;;;;;;;1.00;0.20;;;13.30;99.90;;;;;;5014696;28;20424;-84
2022/09/03 04:46:01;;;;;;;0.90;0.37;;;13.30;55.40;;;;;;5014932;28;20419;-84
2022/09/03 04:48:28;;;;;;;1.27;0.20;;;13.30;14.80;;;;;;5026559;28;20221;-82
2022/09/03 04:51:05;;;;;;;0.87;0.30;;;13.40;99.90;;;;;;5007305;28;20423;-82
2022/09/03 04:53:33;;;;;;;1.23;0.20;;;13.40;1.00;;;;;;5026598;28;21033;-83
2022/09/03 04:55:59;;;;;;;2.30;0.60;;;13.50;99.90;;;;;;5020564;28;20413;-83
2022/09/03 04:58:24;;;;;;;0.90;0.20;;;13.50;99.90;;;;;;5017610;28;20780;-84
2022/09/03 05:00:50;;;;;;;1.60;0.20;;;13.40;1.00;;;;;;5014619;28;20217;-84
2022/09/03 05:03:15;;;;;;;0.50;0.20;;;13.40;1.00;;;;;;5014848;28;20180;-83
2022/09/03 05:05:41;;;;;;;0.73;0.37;;;13.40;99.90;;;;;;5014577;28;20175;-89
2022/09/03 05:08:06;;;;;;;0.43;0.20;;;13.40;99.90;;;;;;5014716;28;20644;-85
2022/09/03 05:10:32;;;;;;;0.60;0.30;;;13.40;90.40;;;;;;5014533;28;20212;-85
2022/09/03 05:13:03;;;;;;;0.60;0.20;;;13.50;99.90;;;;;;4984194;28;20198;-88
2022/09/03 05:15:30;;;;;;;1.17;0.20;;;13.50;53.50;;;;;;4992652;28;20217;-85
2022/09/03 05:18:03;;;;;;;0.40;0.20;;;13.50;1.00;;;;;;5014647;28;20777;-86
2022/09/03 05:20:30;;;;;;;0.50;0.23;;;13.50;1.00;;;;;;5014424;28;20458;-87
2022/09/03 05:23:00;;;;;;;0.70;0.20;;;13.60;1.00;;;;;;5014357;28;20422;-85
2022/09/03 05:25:25;;;;;;;1.00;0.27;;;13.70;99.90;;;;;;5014024;28;20450;-86
2022/09/03 05:27:50;;;;;;;0.77;0.30;;;13.90;99.90;;;;;;5014037;28;20455;-85
2022/09/03 05:30:16;;;;;;;0.50;0.20;;;14.00;1.00;;;;;;5013978;28;20187;-85
2022/09/03 05:32:42;;;;;;;0.47;0.20;;;15.10;99.90;;;;;;4996325;28;20183;-85
2022/09/03 05:35:09;;;;;;;0.60;0.30;;;16.00;99.90;;;;;;5013522;28;20202;-85
2022/09/03 05:37:36;;;;;;;0.60;0.20;;;16.20;99.90;;;;;;5013740;28;20690;-86
2022/09/03 05:40:02;;;;;;;0.80;0.40;;;16.70;99.90;;;;;;5013703;28;20556;-85
2022/09/03 05:42:30;;;;;;;0.80;0.30;;;17.00;97.20;;;;;;4995989;28;20434;-85
2022/09/03 05:44:56;;;;;;;0.70;0.30;;;17.30;32.50;;;;;;5013586;28;20500;-86
2022/09/03 05:47:21;;;;;;;1.50;0.50;;;17.40;13.80;;;;;;5013913;28;20914;-86
2022/09/03 05:49:47;;;;;;;1.00;0.20;;;18.00;1.00;;;;;;5013395;28;20464;-85
2022/09/03 05:52:12;;;;;;;0.50;0.20;;;18.80;1.00;;;;;;4996095;28;20180;-87
2022/09/03 05:54:38;;;;;;;1.10;0.30;;;18.50;1.00;;;;;;4996533;28;20179;-85
2022/09/03 05:57:03;;;;;;;0.47;0.20;;;18.80;1.00;;;;;;5013805;28;20205;-84
2022/09/03 05:59:29;;;;;;;1.20;0.50;;;18.70;1.00;;;;;;4995976;28;20184;-84
2022/09/03 06:01:54;;;;;;;1.63;0.43;;;19.50;1.00;;;;;;5013575;28;20652;-84
2022/09/03 06:04:20;;;;;;;1.30;0.30;;;19.80;1.00;;;;;;5012995;28;20173;-89
2022/09/03 06:06:47;;;;;;;0.87;0.20;;;20.00;1.00;;;;;;5013719;28;20709;-90
2022/09/03 06:09:15;;;;;;;0.40;0.40;;;20.60;1.00;;;;;;5013440;28;20170;-83
2022/09/03 06:11:41;;;;;;;0.77;0.47;;;21.00;1.00;;;;;;5013230;28;21131;-84
2022/09/03 06:14:09;;;;;;;0.70;0.20;;;21.00;1.00;;;;;;5013426;28;20418;-84
2022/09/03 06:16:37;;;;;;;0.70;0.20;;;21.70;1.00;;;;;;5013619;28;20453;-84
2022/09/03 06:19:06;;;;;;;0.70;0.20;;;21.90;1.00;;;;;;4965850;28;21185;-84
2022/09/03 06:21:31;;;;;;;0.93;0.23;;;22.10;1.00;;;;;;5032211;28;20461;-85
2022/09/03 06:23:57;;;;;;;0.87;0.20;;;22.30;1.00;;;;;;5015085;28;20499;-89
2022/09/03 06:26:24;;;;;;;0.70;0.23;;;22.20;1.00;;;;;;5015626;28;20271;-89
2022/09/03 06:28:53;;;;;;;0.87;0.20;;;22.40;1.00;;;;;;5014963;28;20451;-85
2022/09/03 06:31:21;;;;;;;0.97;0.30;;;22.30;1.00;;;;;;5015279;28;20421;-84
2022/09/03 06:33:47;;;;;;;1.73;0.20;;;22.60;1.00;;;;;;5015391;28;20458;-83
2022/09/03 06:36:15;;;;;;;0.70;0.23;;;22.70;1.00;;;;;;5029020;28;20933;-83
2022/09/03 06:38:41;;;;;;;0.60;0.30;;;23.20;1.00;;;;;;5012955;28;20549;-83
2022/09/03 06:41:12;;;;;;;0.70;0.20;;;24.00;1.00;;;;;;5013034;28;20473;-83
2022/09/03 06:43:40;;;;;;;0.83;0.20;;;23.80;1.00;;;;;;4996743;28;20414;-84
2022/09/03 06:46:09;;;;;;;1.07;0.20;;;23.70;1.00;;;;;;5012814;28;20420;-85
2022/09/03 06:48:36;;;;;;;2.40;0.20;;;24.30;1.00;;;;;;4994704;28;20516;-85
2022/09/03 06:51:05;;;;;;;1.47;0.30;;;24.60;1.00;;;;;;5013265;28;20457;-87
2022/09/03 06:53:35;;;;;;;0.77;0.20;;;24.40;1.00;;;;;;5014255;28;20406;-87
2022/09/03 06:56:04;;;;;;;0.90;0.37;;;24.40;1.00;;;;;;5013090;28;20821;-84
2022/09/03 06:58:32;;;;;;;0.50;0.20;;;24.90;1.00;;;;;;5012729;28;20472;-84
2022/09/03 07:01:03;;;;;;;1.33;0.20;;;25.10;1.00;;;;;;5012663;28;20470;-83
2022/09/03 07:03:29;;;;;;;0.67;0.50;;;25.00;1.00;;;;;;4995003;28;20410;-85
2022/09/03 07:06:00;;;;;;;1.27;1.07;;;24.70;1.00;;;;;;5012374;28;20426;-83
2022/09/03 07:08:26;;;;;;;1.20;0.60;;;25.40;1.00;;;;;;5012640;28;20525;-85
2022/09/03 07:10:51;;;;;;;0.57;0.20;;;25.80;1.00;;;;;;5012530;28;20414;-85
2022/09/03 07:13:17;;;;;;;1.40;0.30;;;25.60;1.00;;;;;;5012641;28;20171;-86
2022/09/03 07:15:45;;;;;;;1.73;0.20;;;26.20;1.00;;;;;;5012539;28;20639;-84
2022/09/03 07:18:11;;;;;;;0.97;0.30;;;26.40;1.00;;;;;;5012183;28;20410;-85
2022/09/03 07:20:36;;;;;;;0.70;0.20;;;26.00;1.00;;;;;;4960236;28;20523;-85
2022/09/03 07:23:02;;;;;;;0.60;0.20;;;26.00;1.00;;;;;;5011060;28;20250;-85
2022/09/03 07:25:29;;;;;;;0.80;0.20;;;25.70;1.00;;;;;;5012195;28;20181;-85
2022/09/03 07:27:55;;;;;;;0.87;0.20;;;26.10;1.00;;;;;;5012207;28;20177;-86
2022/09/03 07:30:21;;;;;;;0.60;0.20;;;25.30;1.00;;;;;;5012105;28;20773;-89
2022/09/03 07:32:50;;;;;;;0.73;0.20;;;26.40;1.00;;;;;;4994955;28;20434;-84
2022/09/03 07:35:18;;;;;;;0.93;0.30;;;27.20;1.00;;;;;;4994504;28;20254;-87
2022/09/03 07:37:44;;;;;;;0.60;0.20;;;26.50;1.00;;;;;;5016000;28;20774;-87
2022/09/03 07:40:10;;;;;;;0.60;0.20;;;26.60;1.00;;;;;;4998215;28;20429;-86
2022/09/03 07:42:39;;;;;;;1.00;0.20;;;27.20;1.00;;;;;;4997910;28;20305;-84
2022/09/03 07:45:12;;;;;;;0.60;0.20;;;27.20;1.00;;;;;;4998313;28;20505;-86
2022/09/03 07:47:46;;;;;;;0.67;0.20;;;27.00;1.00;;;;;;5015602;28;20421;-88
2022/09/03 07:50:11;;;;;;;1.43;0.47;;;27.00;1.00;;;;;;5015276;28;20425;-85
2022/09/03 07:52:37;;;;;;;0.93;0.30;;;27.80;1.00;;;;;;4998355;28;20426;-87
2022/09/03 07:55:03;;;;;;;0.53;0.47;;;28.20;1.00;;;;;;5015848;28;20233;-84
2022/09/03 07:57:29;;;;;;;0.80;0.20;;;28.00;1.00;;;;;;5015657;28;20177;-85
2022/09/03 07:59:54;;;;;;;1.03;0.30;;;27.50;1.00;;;;;;5015574;28;20902;-85
2022/09/03 08:02:20;;;;;;;0.80;0.20;;;27.40;1.00;;;;;;5015462;28;20275;-85
2022/09/03 08:04:46;;;;;;;0.97;0.27;;;27.80;1.00;;;;;;5014344;28;20163;-89
2022/09/03 08:07:11;;;;;;;0.70;0.20;;;27.90;1.00;;;;;;5015553;28;20179;-85
2022/09/03 08:09:37;;;;;;;0.50;0.20;;;27.70;1.00;;;;;;5015225;28;20238;-90
2022/09/03 08:12:03;;;;;;;0.60;0.30;;;27.60;1.00;;;;;;5015378;28;20190;-86
2022/09/03 08:14:30;;;;;;;0.60;0.33;;;27.10;1.00;;;;;;5015190;28;20179;-91
2022/09/03 08:16:56;;;;;;;0.90;0.20;;;27.90;1.00;;;;;;5015553;28;20616;-86
2022/09/03 08:19:24;;;;;;;1.60;0.30;;;28.20;1.00;;;;;;4997335;28;20445;-85
2022/09/03 08:21:50;;;;;;;0.60;0.30;;;27.90;1.00;;;;;;5014810;28;20349;-85
2022/09/03 08:24:18;;;;;;;0.90;0.27;;;27.40;1.00;;;;;;4997121;28;20521;-82
2022/09/03 08:26:43;;;;;;;1.30;0.33;;;27.60;1.00;;;;;;5014757;28;20168;-86
2022/09/03 08:29:09;;;;;;;1.03;0.40;;;28.60;1.00;;;;;;5014941;28;20918;-89
2022/09/03 08:31:38;;;;;;;0.90;0.20;;;26.70;1.00;;;;;;4997414;28;20333;-86
2022/09/03 08:34:05;;;;;;;1.30;0.20;;;28.00;1.00;;;;;;5014804;28;20163;-85
2022/09/03 08:36:34;;;;;;;0.97;0.30;;;28.50;1.00;;;;;;5014605;28;20430;-86
2022/09/03 08:39:08;;;;;;;1.10;0.37;;;27.90;1.00;;;;;;5014825;28;20496;-86
2022/09/03 08:41:49;;;;;;;0.63;0.20;;;28.10;1.00;;;;;;4995044;28;20505;-85
2022/09/03 08:44:29;;;;;;;1.60;0.70;;;28.60;1.00;;;;;;5012947;28;20409;-86
2022/09/03 08:47:04;;;;;;;0.93;0.30;;;29.30;1.00;;;;;;5014418;28;20901;-85
2022/09/03 08:49:45;;;;;;;0.70;0.20;;;29.50;1.00;;;;;;4996678;28;20461;-85
2022/09/03 08:52:47;;;;;;;1.23;0.33;;;29.20;1.00;;;;;;5014580;28;20464;-86
2022/09/03 08:55:26;;;;;;;0.67;0.20;;;29.40;1.00;;;;;;4966929;28;20424;-85
2022/09/03 08:57:55;;;;;;;2.23;0.20;;;29.70;1.00;;;;;;5014657;28;20968;-85
2022/09/03 09:00:21;;;;;;;0.50;0.20;;;29.00;1.00;;;;;;5014281;28;20500;-86
2022/09/03 09:03:25;;;;;;;0.70;0.30;;;28.70;1.00;;;;;;5014380;28;20964;-86
2022/09/03 09:06:04;;;;;;;1.43;0.30;;;29.00;1.00;;;;;;5014328;28;20170;-88
2022/09/03 09:08:48;;;;;;;1.00;0.20;;;28.70;1.00;;;;;;5014483;28;21039;-85
2022/09/03 09:11:26;;;;;;;1.00;0.20;;;29.30;1.00;;;;;;5014386;28;20417;-87
2022/09/03 09:14:27;;;;;;;1.10;0.23;;;30.30;1.00;;;;;;5014226;28;20523;-85
2022/09/03 09:16:58;;;;;;;0.87;0.30;;;30.50;1.00;;;;;;4990904;28;20426;-86
2022/09/03 09:19:53;;;;;;;0.57;0.23;;;30.50;1.00;;;;;;5014216;28;20909;-85
2022/09/03 09:22:37;;;;;;;0.57;0.27;;;30.40;1.00;;;;;;5014279;28;20505;-86
2022/09/03 09:25:13;;;;;;;0.90;0.20;;;30.40;1.00;;;;;;5013952;28;20422;-92
2022/09/03 09:27:45;;;;;;;0.60;0.30;;;30.90;1.00;;;;;;5014283;28;20916;-90
2022/09/03 09:30:16;;;;;;;0.87;0.20;;;31.20;1.00;;;;;;5012875;28;20449;-87
2022/09/03 09:32:42;;;;;;;0.93;0.47;;;31.90;1.00;;;;;;5013967;28;20476;-88
2022/09/03 09:35:09;;;;;;;0.67;0.20;;;30.80;1.00;;;;;;5012047;28;20421;-87
2022/09/03 09:37:46;;;;;;;1.10;0.50;;;28.90;1.00;;;;;;5013745;28;20175;-87
2022/09/03 09:40:24;;;;;;;0.40;0.20;;;27.80;1.00;;;;;;5013662;28;20773;-89
2022/09/03 09:42:50;;;;;;;0.93;0.20;;;27.40;1.00;;;;;;5013825;28;20848;-86
2022/09/03 09:45:16;;;;;;;0.70;0.20;;;25.70;1.00;;;;;;5014214;28;20406;-88
2022/09/03 09:47:41;;;;;;;0.60;0.37;;;25.20;1.00;;;;;;5013151;28;20429;-92
2022/09/03 09:50:20;;;;;;;1.07;0.20;;;25.60;1.00;;;;;;4997419;28;20171;-87
2022/09/03 09:52:45;;;;;;;1.13;0.30;;;26.30;1.00;;;;;;5013176;28;20178;-83
2022/09/03 09:55:17;;;;;;;0.70;0.20;;;27.80;1.00;;;;;;5013704;28;20410;-86
2022/09/03 09:57:43;;;;;;;1.13;0.30;;;28.20;1.00;;;;;;5012944;28;20183;-85
2022/09/03 10:00:14;;;;;;;0.60;0.30;;;28.40;1.00;;;;;;5013008;28;20410;-87
2022/09/03 10:02:50;;;;;;;0.50;0.20;;;27.90;1.00;;;;;;5012616;28;20316;-92
2022/09/03 10:05:20;;;;;;;0.60;0.33;;;27.90;1.00;;;;;;5013494;28;20429;-90
2022/09/03 10:07:55;;;;;;;0.90;0.20;;;27.50;1.00;;;;;;5013879;28;20417;-86
2022/09/03 10:10:21;;;;;;;0.97;0.20;;;28.40;1.00;;;;;;5014176;28;20938;-89
2022/09/03 10:13:08;;;;;;;2.00;0.20;;;28.70;1.00;;;;;;5013706;28;20930;-88
2022/09/03 10:15:58;;;;;;;0.60;0.20;;;29.90;1.00;;;;;;5013898;28;20413;-88
2022/09/03 10:18:38;;;;;;;0.73;0.20;;;28.40;1.00;;;;;;5013589;28;20949;-88
2022/09/03 10:21:14;;;;;;;2.40;0.47;;;27.70;1.00;;;;;;5013636;28;20431;-91
2022/09/03 10:24:03;;;;;;;1.33;0.20;;;27.60;1.00;;;;;;5013809;28;20500;-88
2022/09/03 10:26:29;;;;;;;1.00;0.40;;;27.70;1.00;;;;;;4995748;28;20452;-90
2022/09/03 10:29:01;;;;;;;0.53;0.20;;;27.10;1.00;;;;;;4995877;28;20437;-85
2022/09/03 10:32:00;;;;;;;0.90;0.47;;;26.80;1.00;;;;;;5013608;28;20493;-86
2022/09/03 10:34:55;;;;;;;0.50;0.20;;;27.70;1.00;;;;;;5012717;28;20417;-89
2022/09/03 10:37:39;;;;;;;2.50;0.20;;;27.60;1.00;;;;;;5013321;28;20476;-90
2022/09/03 10:40:10;;;;;;;0.70;0.20;;;27.80;1.00;;;;;;5013168;28;20762;-85
2022/09/03 10:43:04;;;;;;;1.00;0.40;;;28.80;1.00;;;;;;5012597;28;20406;-84
2022/09/03 10:46:00;;;;;;;0.80;0.33;;;28.50;1.00;;;;;;5028616;28;20430;-89
2022/09/03 10:48:41;;;;;;;1.13;0.50;;;26.00;1.00;;;;;;5019424;28;20500;-88
2022/09/03 10:51:44;;;;;;;0.67;0.40;;;27.50;1.00;;;;;;5005740;28;20561;-87
2022/09/03 10:54:41;;;;;;;0.90;0.37;;;27.40;1.00;;;;;;5016788;28;20417;-90
2022/09/03 10:57:27;;;;;;;0.53;0.20;;;25.90;1.00;;;;;;5000577;28;20541;-91
2022/09/03 11:00:03;;;;;;;1.87;0.33;;;25.00;1.00;;;;;;4996832;28;20477;-92
2022/09/03 11:03:09;;;;;;;4.27;0.50;;;25.30;1.00;;;;;;5013129;28;20424;-91
2022/09/03 11:05:44;;;;;;;0.60;0.27;;;25.40;1.00;;;;;;5012389;28;20421;-88
2022/09/03 11:08:23;;;;;;;1.00;0.20;;;26.00;1.00;;;;;;5014422;28;20406;-92
2022/09/03 11:10:54;;;;;;;0.80;0.20;;;25.90;1.00;;;;;;5017764;28;20559;-85
2022/09/03 11:13:44;;;;;;;2.00;0.20;;;26.70;1.00;;;;;;5018294;28;20513;-90
2022/09/03 11:16:21;;;;;;;0.80;0.30;;;26.20;1.00;;;;;;5017903;28;20434;-89
2022/09/03 11:19:16;;;;;;;1.57;0.50;;;27.40;1.00;;;;;;5016145;28;20491;-86
2022/09/03 11:21:42;;;;;;;1.13;0.40;;;28.30;1.00;;;;;;4997202;28;20433;-90
2022/09/03 11:24:22;;;;;;;2.23;0.40;;;27.90;1.00;;;;;;5017224;28;20410;-89
2022/09/03 11:27:01;;;;;;;0.87;0.20;;;28.30;1.00;;;;;;5016877;28;20425;-89
2022/09/03 11:29:40;;;;;;;1.10;0.30;;;27.60;1.00;;;;;;4993616;28;20800;-93
2022/09/03 11:32:39;;;;;;;0.60;0.20;;;28.20;1.00;;;;;;4980382;28;20535;-89
2022/09/03 11:35:14;;;;;;;0.80;0.30;;;29.10;1.00;;;;;;4979327;28;20419;-88
2022/09/03 11:38:07;;;;;;;5.80;0.20;;;28.80;1.00;;;;;;4998026;28;20417;-88
2022/09/03 11:40:35;;;;;;;0.80;0.40;;;29.00;1.00;;;;;;4980047;28;20430;-90
2022/09/03 11:43:26;;;;;;;2.10;1.23;;;29.20;1.00;;;;;;4997427;28;20985;-89
2022/09/03 11:46:21;;;;;;;0.63;0.23;;;29.10;1.00;;;;;;4997457;28;20418;-87
2022/09/03 11:48:49;;;;;;;2.60;0.27;;;25.40;1.00;;;;;;4970908;28;20473;-91
2022/09/03 11:51:29;;;;;;;0.70;0.20;;;24.90;1.00;;;;;;4997376;28;20477;-91
2022/09/03 11:54:24;;;;;;;0.97;0.23;;;24.80;1.00;;;;;;4997682;28;20418;-90
2022/09/03 11:56:50;;;;;;;0.60;0.50;;;25.30;1.00;;;;;;4997178;28;20629;-88
2022/09/03 11:59:22;;;;;;;0.50;0.20;;;25.90;1.00;;;;;;5009144;28;20493;-85
2022/09/03 12:01:55;;;;;;;0.90;0.30;;;25.60;1.00;;;;;;4975715;28;20484;-90
2022/09/03 12:05:02;;;;;;;2.30;0.30;;;24.80;1.00;;;;;;5014923;28;20441;-88
2022/09/03 12:07:37;;;;;;;0.50;0.20;;;26.90;1.00;;;;;;5010451;28;20426;-88
2022/09/03 12:10:23;;;;;;;0.90;0.20;;;25.80;1.00;;;;;;5016136;28;20922;-88
2022/09/03 12:13:15;;;;;;;0.60;0.20;;;26.40;1.00;;;;;;4998129;28;20426;-90
2022/09/03 12:15:59;;;;;;;1.30;0.20;;;27.30;1.00;;;;;;4998818;28;20437;-90
2022/09/03 12:18:29;;;;;;;2.83;0.30;;;28.20;1.00;;;;;;4997824;28;20532;-89
2022/09/03 12:20:54;;;;;;;1.03;0.40;;;28.90;1.00;;;;;;4998267;28;20460;-92
2022/09/03 12:23:31;;;;;;;0.50;0.20;;;29.10;1.00;;;;;;5015067;28;20406;-89
2022/09/03 12:26:03;;;;;;;5.40;0.30;;;28.30;1.00;;;;;;5015702;28;20166;-88
2022/09/03 12:28:29;;;;;;;0.60;0.20;;;27.80;1.00;;;;;;5015431;28;20406;-88
2022/09/03 12:31:06;;;;;;;0.47;0.20;;;25.90;1.00;;;;;;5018629;28;20476;-89
2022/09/03 12:33:32;;;;;;;1.60;0.40;;;26.90;1.00;;;;;;5017546;28;20572;-87
2022/09/03 12:36:00;;;;;;;0.40;0.20;;;26.70;1.00;;;;;;5034996;28;20435;-88
2022/09/03 12:38:28;;;;;;;0.70;0.20;;;27.70;1.00;;;;;;5035523;28;20228;-88
2022/09/03 12:40:54;;;;;;;1.00;0.67;;;27.90;1.00;;;;;;5017541;28;20795;-88
2022/09/03 12:43:27;;;;;;;1.10;0.37;;;27.60;1.00;;;;;;5035604;28;20448;-89
2022/09/03 12:45:53;;;;;;;0.97;0.40;;;27.30;1.00;;;;;;5017672;28;20466;-87
2022/09/03 12:48:19;;;;;;;0.97;0.47;;;27.10;1.00;;;;;;5034649;28;20463;-89
2022/09/03 12:50:47;;;;;;;0.70;0.30;;;26.80;1.00;;;;;;5035188;28;20456;-87
2022/09/03 12:53:23;;;;;;;0.50;0.40;;;26.40;1.00;;;;;;5035379;28;20413;-88
2022/09/03 12:55:53;;;;;;;0.73;0.20;;;26.90;1.00;;;;;;5017467;28;20408;-88
2022/09/03 12:58:23;;;;;;;0.70;0.30;;;26.80;1.00;;;;;;5017252;28;20425;-87
2022/09/03 13:00:59;;;;;;;1.47;0.20;;;26.70;1.00;;;;;;5017452;28;20487;-88
2022/09/03 13:03:33;;;;;;;1.30;0.30;;;26.80;1.00;;;;;;4981006;28;20531;-88
2022/09/03 13:06:02;;;;;;;3.20;0.23;;;27.50;1.00;;;;;;4997555;28;20426;-90
2022/09/03 13:08:38;;;;;;;0.60;0.20;;;28.00;1.00;;;;;;4996770;28;20422;-88
2022/09/03 13:11:04;;;;;;;1.30;0.50;;;27.00;1.00;;;;;;5014952;28;20836;-90
2022/09/03 13:13:35;;;;;;;0.90;0.30;;;26.10;1.00;;;;;;4996996;28;20418;-88
2022/09/03 13:16:18;;;;;;;0.90;0.40;;;25.90;1.00;;;;;;4997295;28;20421;-91
2022/09/03 13:19:09;;;;;;;0.50;0.30;;;25.50;1.00;;;;;;4997204;28;20469;-88
2022/09/03 13:21:49;;;;;;;1.07;0.30;;;25.80;1.00;;;;;;5013985;28;20418;-88
2022/09/03 13:24:35;;;;;;;0.70;0.20;;;25.70;1.00;;;;;;5014787;28;20406;-88
2022/09/03 13:27:27;;;;;;;0.50;0.20;;;24.80;1.00;;;;;;5014790;28;20918;-89
2022/09/03 13:30:04;;;;;;;0.80;0.27;;;24.80;1.00;;;;;;5014756;28;20406;-88